Portlaoise, Ireland
Current Conditions -  °F | °C
As of 9:30 AM on Friday 24 Oct 2014 (Local Time) from EIME Reporting Station
Broken Clouds Broken Clouds  
Wind Chill: 50°   Ceiling: 6000
Heat Index: 50°   Visibility: 6mi
Dew Point: 45°   Wind: 12mph
Humidity: 82%   Direction: 230°SW
Pressure: 29.85"   Gusts: NA
Location:  53.04°N, 7.3°W
Report Text: EIME 240930Z 23010KT 9999 FEW016 BKN060 10/07 Q1011
Loading
Personal Weather Stations






























Interactive Weather Map
Tropical Storm Tracking
New forecast layout! Learn more

10-Day Weather Forecast

Advertisements
Track Severe Weather on mobile